Time;durP1;ratioP1;P1;durP2;ratioP2;P2;SDS_P1;SDS_P2;PMS_P1;PMS_P2;Temp;Humidity;BMP_temperature;BMP_pressure;BME280_temperature;BME280_humidity;BME280_pressure;Samples;Min_cycle;Max_cycle;Signal;HPM_P1;HPM_P2
2023/09/08 00:00:40;;;;;;;8.85;7.00;;;;;;;;;;4986457;28;20050;-64
2023/09/08 00:03:06;;;;;;;12.38;7.45;;;;;;;;;;4985853;28;20018;-63
2023/09/08 00:05:31;;;;;;;11.88;6.38;;;;;;;;;;4987451;28;20021;-66
2023/09/08 00:07:57;;;;;;;12.27;6.93;;;;;;;;;;4986507;28;20432;-63
2023/09/08 00:10:22;;;;;;;12.32;6.78;;;;;;;;;;4985922;28;20022;-64
2023/09/08 00:12:48;;;;;;;13.80;7.47;;;;;;;;;;4987315;28;20460;-63
2023/09/08 00:15:13;;;;;;;11.50;6.90;;;;;;;;;;4985496;28;20050;-62
2023/09/08 00:17:39;;;;;;;9.27;7.05;;;;;;;;;;4986268;28;20026;-66
2023/09/08 00:20:09;;;;;;;11.65;7.43;;;;;;;;;;4986684;28;20118;-62
2023/09/08 00:22:34;;;;;;;12.40;7.78;;;;;;;;;;4985774;28;20448;-63
2023/09/08 00:25:00;;;;;;;12.45;8.18;;;;;;;;;;4986051;28;20037;-62
2023/09/08 00:27:25;;;;;;;10.98;8.25;;;;;;;;;;4986934;28;20019;-63
2023/09/08 00:29:51;;;;;;;11.32;7.95;;;;;;;;;;4996060;28;20034;-62
2023/09/08 00:32:16;;;;;;;11.60;8.00;;;;;;;;;;4996261;28;20038;-63
2023/09/08 00:34:41;;;;;;;14.52;8.27;;;;;;;;;;4992223;28;20077;-64
2023/09/08 00:37:09;;;;;;;11.32;7.95;;;;;;;;;;4976728;28;20520;-62
2023/09/08 00:39:35;;;;;;;12.45;8.98;;;;;;;;;;4976601;28;20090;-63
2023/09/08 00:42:01;;;;;;;14.57;8.85;;;;;;;;;;4977253;28;20023;-63
2023/09/08 00:44:26;;;;;;;13.02;8.07;;;;;;;;;;4996015;28;20085;-65
2023/09/08 00:46:52;;;;;;;12.70;9.02;;;;;;;;;;4986276;28;20023;-64
2023/09/08 00:49:17;;;;;;;12.30;8.43;;;;;;;;;;4976678;28;20392;-63
2023/09/08 00:51:43;;;;;;;13.75;8.70;;;;;;;;;;4975245;28;20081;-63
2023/09/08 00:54:08;;;;;;;16.23;9.15;;;;;;;;;;4976491;28;20027;-62
2023/09/08 00:56:36;;;;;;;14.27;8.93;;;;;;;;;;4976502;28;20026;-62
2023/09/08 00:59:02;;;;;;;12.23;8.70;;;;;;;;;;4976092;28;20038;-62
2023/09/08 01:01:28;;;;;;;13.45;9.48;;;;;;;;;;4976318;28;20027;-63
2023/09/08 01:03:54;;;;;;;12.13;8.55;;;;;;;;;;4976349;28;20027;-63
2023/09/08 01:06:19;;;;;;;13.65;8.75;;;;;;;;;;4976262;28;20101;-65
2023/09/08 01:08:45;;;;;;;11.13;8.23;;;;;;;;;;4976150;28;20468;-66
2023/09/08 01:11:11;;;;;;;13.98;9.23;;;;;;;;;;4976269;28;20117;-67
2023/09/08 01:13:36;;;;;;;13.95;9.43;;;;;;;;;;4975939;28;20035;-66
2023/09/08 01:16:02;;;;;;;13.93;8.98;;;;;;;;;;4976199;28;20031;-66
2023/09/08 01:18:27;;;;;;;14.00;8.93;;;;;;;;;;4975894;28;20108;-67
2023/09/08 01:21:17;;;;;;;13.02;8.23;;;;;;;;;;4987548;28;20031;-67
2023/09/08 01:23:45;;;;;;;11.77;8.38;;;;;;;;;;4995694;28;20364;-65
2023/09/08 01:26:17;;;;;;;10.85;8.32;;;;;;;;;;4995358;28;20117;-67
2023/09/08 01:28:45;;;;;;;11.80;8.50;;;;;;;;;;4995092;28;20105;-66
2023/09/08 01:31:10;;;;;;;11.75;8.25;;;;;;;;;;4995312;28;20361;-67
2023/09/08 01:33:36;;;;;;;12.52;9.00;;;;;;;;;;4995134;28;20067;-67
2023/09/08 01:36:02;;;;;;;12.85;9.32;;;;;;;;;;5005798;28;20034;-62
2023/09/08 01:38:28;;;;;;;11.63;8.82;;;;;;;;;;4995078;28;20034;-63
2023/09/08 01:40:53;;;;;;;14.60;8.77;;;;;;;;;;4995048;28;20049;-65
2023/09/08 01:43:18;;;;;;;14.75;8.77;;;;;;;;;;4994784;28;20054;-67
2023/09/08 01:45:44;;;;;;;11.43;8.60;;;;;;;;;;4994967;28;20373;-67
2023/09/08 01:48:09;;;;;;;13.00;8.77;;;;;;;;;;4995034;28;20515;-64
2023/09/08 01:50:35;;;;;;;10.57;8.93;;;;;;;;;;4995060;28;20038;-66
2023/09/08 01:53:00;;;;;;;12.85;9.07;;;;;;;;;;4994829;28;20113;-62
2023/09/08 01:55:25;;;;;;;18.70;8.85;;;;;;;;;;4994847;28;20022;-62
2023/09/08 01:57:51;;;;;;;13.10;8.50;;;;;;;;;;4993322;28;20365;-62
2023/09/08 02:00:17;;;;;;;14.65;8.93;;;;;;;;;;4993305;28;20045;-63
2023/09/08 02:02:42;;;;;;;13.15;8.40;;;;;;;;;;4994836;28;20030;-63
2023/09/08 02:05:08;;;;;;;19.60;8.48;;;;;;;;;;4994685;28;20034;-65
2023/09/08 02:07:35;;;;;;;14.98;8.13;;;;;;;;;;4994523;28;20035;-62
2023/09/08 02:10:01;;;;;;;11.25;8.40;;;;;;;;;;4994499;28;20030;-63
2023/09/08 02:12:26;;;;;;;10.20;7.88;;;;;;;;;;4994277;28;20098;-66
2023/09/08 02:14:52;;;;;;;12.85;8.65;;;;;;;;;;4994490;28;20025;-66
2023/09/08 02:17:17;;;;;;;14.25;8.55;;;;;;;;;;4994392;28;20360;-64
2023/09/08 02:19:44;;;;;;;11.68;7.93;;;;;;;;;;4993867;28;20065;-63
2023/09/08 02:22:09;;;;;;;10.63;7.85;;;;;;;;;;4993819;28;20034;-64
2023/09/08 02:24:35;;;;;;;10.43;7.70;;;;;;;;;;4994354;28;20081;-64
2023/09/08 02:27:00;;;;;;;12.55;8.13;;;;;;;;;;4994095;28;20026;-62
2023/09/08 02:29:26;;;;;;;13.13;8.05;;;;;;;;;;4994200;28;20137;-63
2023/09/08 02:31:51;;;;;;;11.07;7.80;;;;;;;;;;4994113;28;20025;-62
2023/09/08 02:34:17;;;;;;;11.73;8.13;;;;;;;;;;4998383;28;20177;-63
2023/09/08 02:36:42;;;;;;;14.43;8.85;;;;;;;;;;5000021;28;20080;-63
2023/09/08 02:39:08;;;;;;;11.20;8.20;;;;;;;;;;4993882;28;20029;-62
2023/09/08 02:41:34;;;;;;;11.20;7.78;;;;;;;;;;4993785;28;20029;-62
2023/09/08 02:43:59;;;;;;;11.55;8.13;;;;;;;;;;4999149;28;20112;-63
2023/09/08 02:46:25;;;;;;;12.18;7.88;;;;;;;;;;5013410;28;20029;-62
2023/09/08 02:48:51;;;;;;;12.00;7.65;;;;;;;;;;5013360;28;20490;-63
2023/09/08 02:51:16;;;;;;;14.23;8.77;;;;;;;;;;5013526;28;20022;-62
2023/09/08 02:53:42;;;;;;;10.30;7.88;;;;;;;;;;5013457;28;20030;-62
2023/09/08 02:56:09;;;;;;;14.05;8.25;;;;;;;;;;5013043;28;20100;-63
2023/09/08 02:58:34;;;;;;;16.05;8.23;;;;;;;;;;5013077;28;20030;-66
2023/09/08 03:01:20;;;;;;;13.15;8.05;;;;;;;;;;5013182;28;20037;-63
2023/09/08 03:03:46;;;;;;;11.45;7.68;;;;;;;;;;5013149;28;20029;-62
2023/09/08 03:06:13;;;;;;;13.32;8.52;;;;;;;;;;5013113;28;20084;-63
2023/09/08 03:08:38;;;;;;;14.02;8.45;;;;;;;;;;5012895;28;20418;-66
2023/09/08 03:11:05;;;;;;;10.05;8.05;;;;;;;;;;5013216;28;20026;-67
2023/09/08 03:13:31;;;;;;;14.88;8.93;;;;;;;;;;5013081;28;20037;-63
2023/09/08 03:15:56;;;;;;;13.60;8.57;;;;;;;;;;5013099;28;20021;-63
2023/09/08 03:18:22;;;;;;;14.15;8.75;;;;;;;;;;5012979;28;20112;-63
2023/09/08 03:20:49;;;;;;;10.00;8.15;;;;;;;;;;5001496;28;20064;-65
2023/09/08 03:23:15;;;;;;;12.38;8.63;;;;;;;;;;4993021;28;20487;-66
2023/09/08 03:25:41;;;;;;;13.77;9.02;;;;;;;;;;4993116;28;20038;-64
2023/09/08 03:28:06;;;;;;;13.35;7.30;;;;;;;;;;4992008;28;20045;-66
2023/09/08 03:30:32;;;;;;;17.98;8.00;;;;;;;;;;4993399;28;20026;-67
2023/09/08 03:32:57;;;;;;;16.15;9.25;;;;;;;;;;4992377;28;20027;-66
2023/09/08 03:35:22;;;;;;;17.65;8.27;;;;;;;;;;5003975;28;20120;-67
2023/09/08 03:37:49;;;;;;;20.23;9.02;;;;;;;;;;4993001;28;20109;-63
2023/09/08 03:40:14;;;;;;;14.38;9.13;;;;;;;;;;4993111;28;20034;-63
2023/09/08 03:42:41;;;;;;;15.10;8.15;;;;;;;;;;4993078;28;20038;-66
2023/09/08 03:45:07;;;;;;;17.08;8.80;;;;;;;;;;4993301;28;20023;-63
2023/09/08 03:47:33;;;;;;;10.70;7.90;;;;;;;;;;4993208;28;20022;-67
2023/09/08 03:49:58;;;;;;;11.93;8.27;;;;;;;;;;4993182;28;20064;-64
2023/09/08 03:52:24;;;;;;;13.30;8.27;;;;;;;;;;4992972;28;20026;-63
2023/09/08 03:54:50;;;;;;;11.10;8.27;;;;;;;;;;4993028;28;20034;-65
2023/09/08 03:57:15;;;;;;;11.85;8.43;;;;;;;;;;4993118;28;20167;-63
2023/09/08 03:59:41;;;;;;;14.30;8.38;;;;;;;;;;4992973;28;20372;-62
2023/09/08 04:02:06;;;;;;;10.55;8.38;;;;;;;;;;4993121;28;20464;-63
2023/09/08 04:04:31;;;;;;;10.48;7.93;;;;;;;;;;4993077;28;20089;-62
2023/09/08 04:06:57;;;;;;;14.18;8.23;;;;;;;;;;4992816;28;20117;-64
2023/09/08 04:09:22;;;;;;;14.60;8.45;;;;;;;;;;4992571;28;20026;-63
2023/09/08 04:11:48;;;;;;;13.38;8.38;;;;;;;;;;4992968;28;20019;-63
2023/09/08 04:14:13;;;;;;;11.27;8.18;;;;;;;;;;4992950;28;20113;-63
2023/09/08 04:16:38;;;;;;;13.68;8.25;;;;;;;;;;4992984;28;20034;-62
2023/09/08 04:19:04;;;;;;;12.38;8.63;;;;;;;;;;4992569;28;20045;-63
2023/09/08 04:21:29;;;;;;;13.55;8.25;;;;;;;;;;4992420;28;20030;-62
2023/09/08 04:23:55;;;;;;;11.38;7.55;;;;;;;;;;4992803;28;20030;-64
2023/09/08 04:26:20;;;;;;;13.15;7.78;;;;;;;;;;4992768;28;20158;-63
2023/09/08 04:28:46;;;;;;;14.43;8.00;;;;;;;;;;4992681;28;20050;-62
2023/09/08 04:31:11;;;;;;;15.68;7.30;;;;;;;;;;4992584;28;20494;-64
2023/09/08 04:33:36;;;;;;;14.05;7.53;;;;;;;;;;4992638;28;20030;-65
2023/09/08 04:36:02;;;;;;;13.45;8.20;;;;;;;;;;5003096;28;20037;-64
2023/09/08 04:38:27;;;;;;;14.10;7.68;;;;;;;;;;4992547;28;20029;-62
2023/09/08 04:40:53;;;;;;;10.30;7.63;;;;;;;;;;4992631;28;20026;-63
2023/09/08 04:43:18;;;;;;;16.98;7.70;;;;;;;;;;4992363;28;20571;-65
2023/09/08 04:45:43;;;;;;;11.85;7.80;;;;;;;;;;4996202;28;20030;-62
2023/09/08 04:48:09;;;;;;;15.32;8.27;;;;;;;;;;4996262;28;20042;-65
2023/09/08 04:50:34;;;;;;;14.18;9.48;;;;;;;;;;4995850;28;20424;-62
2023/09/08 04:53:00;;;;;;;13.63;9.60;;;;;;;;;;4996024;28;20033;-62
2023/09/08 04:55:25;;;;;;;19.40;9.00;;;;;;;;;;4995868;28;20030;-63
2023/09/08 04:57:51;;;;;;;15.18;9.23;;;;;;;;;;4995741;28;20057;-64
2023/09/08 05:00:17;;;;;;;19.42;8.38;;;;;;;;;;4995944;28;20039;-64
2023/09/08 05:02:43;;;;;;;17.05;7.80;;;;;;;;;;4995718;28;20061;-62
2023/09/08 05:05:08;;;;;;;14.68;8.15;;;;;;;;;;4994441;28;20076;-63
2023/09/08 05:07:34;;;;;;;21.13;8.07;;;;;;;;;;4995754;28;20026;-67
2023/09/08 05:09:59;;;;;;;19.60;8.70;;;;;;;;;;4995530;28;20065;-66
2023/09/08 05:12:25;;;;;;;20.30;9.07;;;;;;;;;;4995381;28;20022;-65
2023/09/08 05:14:55;;;;;;;15.68;8.25;;;;;;;;;;4995645;28;20049;-63
2023/09/08 05:17:21;;;;;;;27.42;8.07;;;;;;;;;;4995656;28;20019;-65
2023/09/08 05:19:46;;;;;;;19.73;8.52;;;;;;;;;;4994969;28;20089;-63
2023/09/08 05:22:12;;;;;;;22.45;8.65;;;;;;;;;;4995316;28;20022;-66
2023/09/08 05:24:37;;;;;;;20.27;8.45;;;;;;;;;;4995387;28;20034;-63
2023/09/08 05:27:03;;;;;;;21.15;8.57;;;;;;;;;;4995413;28;20026;-63
2023/09/08 05:29:28;;;;;;;23.52;8.63;;;;;;;;;;4995345;28;20030;-66
2023/09/08 05:31:54;;;;;;;19.00;9.43;;;;;;;;;;4995055;28;20022;-63
2023/09/08 05:34:19;;;;;;;16.58;10.27;;;;;;;;;;4999680;28;20440;-66
2023/09/08 05:36:45;;;;;;;13.98;10.48;;;;;;;;;;5001017;28;20035;-67
2023/09/08 05:39:11;;;;;;;13.98;10.40;;;;;;;;;;4995071;28;20030;-66
2023/09/08 05:41:36;;;;;;;13.25;10.80;;;;;;;;;;4995224;28;20065;-66
2023/09/08 05:44:02;;;;;;;17.80;11.32;;;;;;;;;;4995073;28;20062;-66
2023/09/08 05:46:27;;;;;;;12.77;10.70;;;;;;;;;;4994870;28;20117;-66
2023/09/08 05:48:53;;;;;;;15.98;11.48;;;;;;;;;;4994684;28;20026;-67
2023/09/08 05:51:18;;;;;;;18.27;11.52;;;;;;;;;;4994982;28;20514;-66
2023/09/08 05:53:44;;;;;;;19.63;11.48;;;;;;;;;;4994774;28;20328;-67
2023/09/08 05:56:10;;;;;;;15.75;11.93;;;;;;;;;;4993889;28;20503;-66
2023/09/08 05:58:36;;;;;;;14.90;11.30;;;;;;;;;;4994778;28;20034;-67
2023/09/08 06:01:02;;;;;;;20.20;12.45;;;;;;;;;;4994713;28;20022;-67
2023/09/08 06:03:27;;;;;;;15.57;11.52;;;;;;;;;;4994521;28;20077;-66
2023/09/08 06:05:53;;;;;;;17.15;12.13;;;;;;;;;;4994921;28;20063;-67
2023/09/08 06:08:18;;;;;;;19.85;11.65;;;;;;;;;;4994451;28;20491;-67
2023/09/08 06:10:44;;;;;;;16.88;11.70;;;;;;;;;;4994374;28;20112;-67
2023/09/08 06:13:10;;;;;;;16.58;11.18;;;;;;;;;;4994506;28;20105;-65
2023/09/08 06:15:35;;;;;;;19.30;11.07;;;;;;;;;;4994236;28;20025;-66
2023/09/08 06:18:01;;;;;;;16.70;11.55;;;;;;;;;;4994139;28;20034;-65
2023/09/08 06:20:27;;;;;;;16.15;10.77;;;;;;;;;;4993925;28;20134;-65
2023/09/08 06:22:52;;;;;;;20.75;11.52;;;;;;;;;;4994280;28;20062;-67
2023/09/08 06:25:17;;;;;;;16.73;10.77;;;;;;;;;;4994298;28;20026;-67
2023/09/08 06:27:43;;;;;;;16.15;10.07;;;;;;;;;;4994331;28;20026;-66
2023/09/08 06:30:09;;;;;;;14.68;10.35;;;;;;;;;;4994041;28;20062;-66
2023/09/08 06:32:35;;;;;;;13.98;9.25;;;;;;;;;;4993569;28;20041;-66
2023/09/08 06:35:00;;;;;;;16.35;8.80;;;;;;;;;;5004346;28;20399;-64
2023/09/08 06:37:25;;;;;;;12.88;8.30;;;;;;;;;;4995192;28;20034;-68
2023/09/08 06:39:54;;;;;;;12.93;7.93;;;;;;;;;;5003838;28;20029;-66
2023/09/08 06:42:19;;;;;;;12.68;7.70;;;;;;;;;;4982483;28;20034;-64
2023/09/08 06:44:45;;;;;;;12.73;8.30;;;;;;;;;;5006276;28;20026;-67
2023/09/08 06:47:10;;;;;;;14.18;8.27;;;;;;;;;;5012666;28;20053;-68
2023/09/08 06:49:36;;;;;;;17.85;8.07;;;;;;;;;;5011578;28;20018;-68
2023/09/08 06:52:02;;;;;;;14.85;7.88;;;;;;;;;;5000327;28;20128;-69
2023/09/08 06:54:27;;;;;;;16.27;8.15;;;;;;;;;;5009043;28;20471;-66
2023/09/08 06:56:53;;;;;;;15.95;8.00;;;;;;;;;;4996486;28;20025;-67
2023/09/08 06:59:18;;;;;;;10.52;7.70;;;;;;;;;;5001508;28;20113;-67
2023/09/08 07:01:44;;;;;;;19.58;7.32;;;;;;;;;;5003055;28;20113;-62
2023/09/08 07:04:10;;;;;;;18.05;7.25;;;;;;;;;;5000036;28;20114;-65
2023/09/08 07:06:38;;;;;;;13.55;6.90;;;;;;;;;;5009258;28;20419;-67
2023/09/08 07:09:03;;;;;;;15.43;7.55;;;;;;;;;;5012738;28;20057;-64
2023/09/08 07:11:30;;;;;;;17.15;7.40;;;;;;;;;;5012902;28;20052;-65
2023/09/08 07:13:56;;;;;;;13.80;7.43;;;;;;;;;;5012795;28;20081;-63
2023/09/08 07:16:21;;;;;;;14.80;6.90;;;;;;;;;;4993200;28;20026;-66
2023/09/08 07:18:46;;;;;;;19.88;7.15;;;;;;;;;;4993012;28;20447;-66
2023/09/08 07:21:12;;;;;;;15.02;7.55;;;;;;;;;;4993088;28;20031;-64
2023/09/08 07:23:38;;;;;;;15.30;7.43;;;;;;;;;;4993211;28;20535;-66
2023/09/08 07:26:03;;;;;;;16.75;7.45;;;;;;;;;;4992891;28;20395;-66
2023/09/08 07:28:29;;;;;;;20.67;7.40;;;;;;;;;;4992843;28;20022;-66
2023/09/08 07:31:01;;;;;;;16.00;7.00;;;;;;;;;;4992987;28;20027;-67
2023/09/08 07:33:27;;;;;;;17.30;7.47;;;;;;;;;;4992919;28;20045;-66
2023/09/08 07:35:52;;;;;;;19.33;8.18;;;;;;;;;;4988376;28;20389;-67
2023/09/08 07:38:17;;;;;;;21.02;7.13;;;;;;;;;;4976927;28;20396;-66
2023/09/08 07:40:43;;;;;;;18.55;6.70;;;;;;;;;;5012601;28;20033;-66
2023/09/08 07:43:08;;;;;;;14.98;6.60;;;;;;;;;;5012743;28;20029;-66
2023/09/08 07:45:34;;;;;;;15.80;7.35;;;;;;;;;;5012433;28;20030;-67
2023/09/08 07:47:59;;;;;;;14.52;7.03;;;;;;;;;;5012526;28;20029;-65
2023/09/08 07:50:27;;;;;;;15.00;6.55;;;;;;;;;;4993588;28;20022;-66
2023/09/08 07:52:55;;;;;;;13.98;6.70;;;;;;;;;;4992882;28;20052;-63
2023/09/08 07:55:27;;;;;;;10.73;5.60;;;;;;;;;;4992938;28;20105;-63
2023/09/08 07:57:53;;;;;;;16.67;6.22;;;;;;;;;;5006485;28;20029;-67
2023/09/08 08:00:19;;;;;;;12.25;5.50;;;;;;;;;;5012086;28;20106;-66
2023/09/08 08:02:49;;;;;;;12.70;5.72;;;;;;;;;;4993126;28;20026;-66
2023/09/08 08:05:15;;;;;;;13.13;5.68;;;;;;;;;;4973155;28;20085;-63
2023/09/08 08:07:42;;;;;;;15.68;6.18;;;;;;;;;;4973232;28;20113;-66
2023/09/08 08:10:09;;;;;;;18.40;6.10;;;;;;;;;;5005577;28;20455;-68
2023/09/08 08:12:35;;;;;;;19.85;5.53;;;;;;;;;;5012184;28;20033;-68
2023/09/08 08:15:01;;;;;;;16.30;5.78;;;;;;;;;;5012076;28;20109;-64
2023/09/08 08:17:27;;;;;;;12.93;5.88;;;;;;;;;;5012284;28;20037;-67
2023/09/08 08:19:53;;;;;;;12.98;5.82;;;;;;;;;;5010513;28;20066;-66
2023/09/08 08:22:19;;;;;;;12.10;5.43;;;;;;;;;;4996306;28;20022;-66
2023/09/08 08:24:45;;;;;;;13.52;5.28;;;;;;;;;;4995939;28;20022;-63
2023/09/08 08:27:11;;;;;;;14.18;6.20;;;;;;;;;;4996370;28;20088;-66
2023/09/08 08:29:36;;;;;;;11.63;5.00;;;;;;;;;;4995675;28;20026;-66
2023/09/08 08:32:02;;;;;;;14.38;5.75;;;;;;;;;;4996110;28;20054;-66
2023/09/08 08:34:27;;;;;;;10.57;5.15;;;;;;;;;;4995837;28;20042;-62
2023/09/08 08:36:53;;;;;;;13.85;5.13;;;;;;;;;;4983200;28;20039;-64
2023/09/08 08:39:19;;;;;;;14.70;5.30;;;;;;;;;;4976632;28;20041;-64
2023/09/08 08:41:44;;;;;;;13.25;4.90;;;;;;;;;;4976507;28;20440;-66
2023/09/08 08:44:10;;;;;;;9.95;4.47;;;;;;;;;;4976203;28;20027;-63
2023/09/08 08:46:37;;;;;;;11.93;5.45;;;;;;;;;;4982801;28;20104;-64
2023/09/08 08:49:06;;;;;;;9.13;4.32;;;;;;;;;;5007695;28;20034;-66
2023/09/08 08:51:32;;;;;;;;;;;;;;;;;;4996224;28;20310;-62
2023/09/08 08:53:57;;;;;;;8.63;4.28;;;;;;;;;;4995729;28;19929;-66
2023/09/08 08:56:23;;;;;;;5.68;4.15;;;;;;;;;;4995554;28;20066;-64
2023/09/08 08:58:50;;;;;;;13.02;4.80;;;;;;;;;;4995525;28;20035;-65
2023/09/08 09:01:18;;;;;;;6.40;4.90;;;;;;;;;;4995775;28;20034;-63
2023/09/08 09:03:48;;;;;;;9.00;4.97;;;;;;;;;;4995521;28;20506;-63
2023/09/08 09:06:14;;;;;;;11.68;6.03;;;;;;;;;;4995462;28;20080;-66
2023/09/08 09:08:42;;;;;;;11.15;4.95;;;;;;;;;;4995077;28;20026;-65
2023/09/08 09:11:08;;;;;;;6.93;4.90;;;;;;;;;;4995252;28;20452;-63
2023/09/08 09:13:34;;;;;;;6.43;4.28;;;;;;;;;;4995433;28;20033;-65
2023/09/08 09:16:00;;;;;;;8.10;3.40;;;;;;;;;;4995620;28;20480;-64
2023/09/08 09:18:26;;;;;;;8.18;4.80;;;;;;;;;;4995276;28;20027;-63
2023/09/08 09:20:55;;;;;;;6.95;3.97;;;;;;;;;;4994907;28;20093;-65
2023/09/08 09:23:34;;;;;;;7.35;3.90;;;;;;;;;;4995233;28;20022;-62
2023/09/08 09:26:05;;;;;;;5.38;3.60;;;;;;;;;;4994904;28;20077;-62
2023/09/08 09:28:31;;;;;;;6.32;3.88;;;;;;;;;;4995159;28;20027;-63
2023/09/08 09:30:57;;;;;;;5.40;3.90;;;;;;;;;;4993910;28;20048;-61
2023/09/08 09:33:23;;;;;;;6.50;3.55;;;;;;;;;;4994924;28;20036;-61
2023/09/08 09:35:51;;;;;;;7.88;3.70;;;;;;;;;;4990839;28;20066;-62
2023/09/08 09:38:18;;;;;;;6.43;4.00;;;;;;;;;;5008931;28;20124;-62
2023/09/08 09:40:45;;;;;;;6.90;4.00;;;;;;;;;;5001144;28;20065;-61
2023/09/08 09:43:12;;;;;;;6.18;3.83;;;;;;;;;;4978442;28;20105;-64
2023/09/08 09:45:39;;;;;;;6.00;4.07;;;;;;;;;;4975302;28;20034;-66
2023/09/08 09:48:06;;;;;;;5.90;3.70;;;;;;;;;;4975148;28;20421;-63
2023/09/08 09:50:34;;;;;;;6.55;4.10;;;;;;;;;;4999465;28;20025;-64
2023/09/08 09:53:02;;;;;;;4.95;3.83;;;;;;;;;;5014159;28;20463;-65
2023/09/08 09:55:28;;;;;;;5.25;3.50;;;;;;;;;;5013937;28;20450;-67
2023/09/08 09:58:03;;;;;;;5.95;3.67;;;;;;;;;;5014138;28;20086;-67
2023/09/08 10:00:29;;;;;;;5.00;4.07;;;;;;;;;;5006827;28;20092;-67
2023/09/08 10:02:55;;;;;;;5.65;4.43;;;;;;;;;;4974973;28;20027;-67
2023/09/08 10:05:21;;;;;;;8.05;5.03;;;;;;;;;;4974992;28;20490;-66
2023/09/08 10:07:51;;;;;;;10.32;4.53;;;;;;;;;;4974811;28;20051;-68
2023/09/08 10:10:18;;;;;;;8.38;5.53;;;;;;;;;;5009993;28;20025;-66
2023/09/08 10:12:47;;;;;;;6.05;3.83;;;;;;;;;;5013664;28;20052;-67
2023/09/08 10:15:16;;;;;;;5.85;3.85;;;;;;;;;;5013976;28;20033;-66
2023/09/08 10:17:44;;;;;;;7.10;4.00;;;;;;;;;;5014010;28;20037;-65
2023/09/08 10:20:15;;;;;;;8.57;4.18;;;;;;;;;;5007378;28;20042;-65
2023/09/08 10:22:45;;;;;;;7.13;4.30;;;;;;;;;;4994213;28;20120;-67
2023/09/08 10:25:12;;;;;;;6.90;3.97;;;;;;;;;;4993920;28;20428;-67
2023/09/08 10:27:38;;;;;;;7.57;4.10;;;;;;;;;;5005092;28;20399;-65
2023/09/08 10:30:06;;;;;;;6.50;3.85;;;;;;;;;;5013470;28;20025;-65
2023/09/08 10:32:35;;;;;;;4.57;3.10;;;;;;;;;;5013326;28;20096;-63
2023/09/08 10:35:02;;;;;;;5.18;3.83;;;;;;;;;;4999583;28;20062;-65
2023/09/08 10:37:29;;;;;;;7.10;3.10;;;;;;;;;;4974360;28;20039;-66
2023/09/08 10:40:15;;;;;;;7.47;3.38;;;;;;;;;;4974249;28;20027;-63
2023/09/08 10:42:40;;;;;;;5.93;3.50;;;;;;;;;;4991434;28;20040;-63
2023/09/08 10:45:17;;;;;;;5.57;3.50;;;;;;;;;;5003073;28;20117;-63
2023/09/08 10:47:46;;;;;;;7.47;3.65;;;;;;;;;;4993651;28;20030;-63
2023/09/08 10:50:19;;;;;;;8.52;3.20;;;;;;;;;;4993217;28;20041;-63
2023/09/08 10:52:45;;;;;;;5.32;3.28;;;;;;;;;;5007014;28;20036;-62
2023/09/08 10:55:14;;;;;;;7.60;3.22;;;;;;;;;;5013199;28;20025;-62
2023/09/08 10:57:45;;;;;;;7.75;3.10;;;;;;;;;;5013154;28;20035;-64
2023/09/08 11:00:17;;;;;;;4.05;2.90;;;;;;;;;;5013010;28;20037;-66
2023/09/08 11:02:48;;;;;;;5.85;3.50;;;;;;;;;;5013044;28;20109;-64
2023/09/08 11:05:15;;;;;;;4.93;3.58;;;;;;;;;;5012873;28;20087;-63
2023/09/08 11:07:44;;;;;;;6.00;3.25;;;;;;;;;;5012610;28;20498;-63
2023/09/08 11:10:11;;;;;;;6.40;3.58;;;;;;;;;;4995754;28;20121;-64
2023/09/08 11:12:37;;;;;;;5.68;3.78;;;;;;;;;;4993088;28;20034;-63
2023/09/08 11:15:05;;;;;;;5.90;3.50;;;;;;;;;;4993401;28;20165;-65
2023/09/08 11:17:31;;;;;;;5.07;3.25;;;;;;;;;;5003590;28;20022;-65
2023/09/08 11:19:57;;;;;;;4.93;3.30;;;;;;;;;;4996677;28;20117;-65
2023/09/08 11:22:24;;;;;;;5.35;3.20;;;;;;;;;;5010373;28;20161;-63
2023/09/08 11:24:51;;;;;;;5.95;3.63;;;;;;;;;;5011132;28;20034;-65
2023/09/08 11:27:18;;;;;;;5.95;3.67;;;;;;;;;;5012514;28;20058;-63
2023/09/08 11:29:44;;;;;;;4.43;3.25;;;;;;;;;;4977328;28;20027;-64
2023/09/08 11:32:10;;;;;;;10.45;3.83;;;;;;;;;;4992530;28;20093;-66
2023/09/08 11:34:36;;;;;;;5.00;3.13;;;;;;;;;;4991799;28;20399;-65
2023/09/08 11:37:13;;;;;;;4.88;3.53;;;;;;;;;;4977556;28;20027;-63
2023/09/08 11:39:43;;;;;;;6.10;3.65;;;;;;;;;;4973278;28;20457;-62
2023/09/08 11:42:09;;;;;;;6.20;3.65;;;;;;;;;;4973271;28;20073;-62
2023/09/08 11:44:36;;;;;;;5.03;3.38;;;;;;;;;;4973316;28;20133;-62
2023/09/08 11:47:03;;;;;;;4.95;3.40;;;;;;;;;;4973230;28;20034;-65
2023/09/08 11:49:39;;;;;;;8.77;3.50;;;;;;;;;;4973131;28;20114;-62
2023/09/08 11:52:05;;;;;;;6.25;3.17;;;;;;;;;;4973223;28;20027;-65
2023/09/08 11:54:31;;;;;;;4.95;3.45;;;;;;;;;;4975228;28;20062;-62
2023/09/08 11:57:00;;;;;;;4.95;3.10;;;;;;;;;;4977195;28;20533;-66
2023/09/08 11:59:27;;;;;;;4.47;3.17;;;;;;;;;;4977378;28;20029;-63
2023/09/08 12:01:52;;;;;;;7.20;3.55;;;;;;;;;;4992329;28;20038;-63
2023/09/08 12:04:20;;;;;;;6.00;3.65;;;;;;;;;;5016144;28;20030;-65
2023/09/08 12:06:46;;;;;;;5.75;3.65;;;;;;;;;;5014942;28;20058;-66
2023/09/08 12:09:11;;;;;;;6.30;3.53;;;;;;;;;;5015950;28;20049;-64
2023/09/08 12:11:41;;;;;;;6.65;4.07;;;;;;;;;;5016049;28;20037;-65
2023/09/08 12:14:09;;;;;;;6.43;3.47;;;;;;;;;;5016215;28;20536;-62
2023/09/08 12:16:35;;;;;;;5.43;3.60;;;;;;;;;;5016023;28;20403;-62
2023/09/08 12:19:00;;;;;;;5.88;3.78;;;;;;;;;;4994978;28;20046;-65
2023/09/08 12:21:26;;;;;;;8.50;3.92;;;;;;;;;;4995959;28;20034;-62
2023/09/08 12:23:53;;;;;;;6.85;3.80;;;;;;;;;;4999989;28;20026;-65
2023/09/08 12:26:19;;;;;;;7.82;3.55;;;;;;;;;;5001532;28;20030;-63
2023/09/08 12:28:46;;;;;;;5.53;3.30;;;;;;;;;;5007003;28;20076;-66
2023/09/08 12:31:15;;;;;;;7.32;3.60;;;;;;;;;;5015728;28;20123;-64
2023/09/08 12:33:43;;;;;;;7.40;3.50;;;;;;;;;;5015216;28;20040;-63
2023/09/08 12:36:14;;;;;;;5.80;3.75;;;;;;;;;;4989055;28;20038;-66
2023/09/08 12:38:40;;;;;;;8.20;3.88;;;;;;;;;;4975397;28;20027;-65
2023/09/08 12:41:05;;;;;;;10.23;3.83;;;;;;;;;;4976419;28;20030;-62
2023/09/08 12:43:30;;;;;;;10.90;3.70;;;;;;;;;;4988941;28;20030;-67
2023/09/08 12:45:56;;;;;;;4.70;3.13;;;;;;;;;;5004873;28;20022;-65
2023/09/08 12:48:22;;;;;;;4.13;2.85;;;;;;;;;;5004748;28;20030;-67
2023/09/08 12:50:48;;;;;;;4.60;3.30;;;;;;;;;;5004574;28;20045;-67
2023/09/08 12:53:14;;;;;;;6.53;3.70;;;;;;;;;;5009572;28;20026;-65
2023/09/08 12:55:39;;;;;;;5.07;3.65;;;;;;;;;;4999635;28;20460;-62
2023/09/08 12:58:05;;;;;;;6.95;3.53;;;;;;;;;;4996167;28;20034;-63
2023/09/08 13:00:30;;;;;;;6.40;3.40;;;;;;;;;;5013086;28;20026;-66
2023/09/08 13:02:55;;;;;;;5.78;3.28;;;;;;;;;;5013645;28;20041;-64
2023/09/08 13:05:21;;;;;;;5.60;3.58;;;;;;;;;;5013390;28;20029;-66
2023/09/08 13:07:46;;;;;;;6.63;3.80;;;;;;;;;;5013366;28;20404;-67
2023/09/08 13:10:12;;;;;;;7.53;3.25;;;;;;;;;;5014170;28;20104;-66
2023/09/08 13:12:37;;;;;;;4.82;2.97;;;;;;;;;;5014493;28;20053;-65
2023/09/08 13:15:03;;;;;;;7.30;3.42;;;;;;;;;;5014226;28;20451;-66
2023/09/08 13:17:29;;;;;;;9.35;3.50;;;;;;;;;;5014651;28;20030;-67
2023/09/08 13:19:54;;;;;;;6.55;2.83;;;;;;;;;;5006151;28;20043;-63
2023/09/08 13:22:20;;;;;;;3.90;2.58;;;;;;;;;;4974488;28;20410;-65
2023/09/08 13:24:45;;;;;;;4.45;2.90;;;;;;;;;;4975221;28;20027;-67
2023/09/08 13:27:11;;;;;;;7.45;3.30;;;;;;;;;;4975191;28;20085;-65
2023/09/08 13:29:37;;;;;;;5.60;3.38;;;;;;;;;;4974551;28;20065;-65
2023/09/08 13:32:04;;;;;;;5.22;3.47;;;;;;;;;;4975418;28;20030;-65
2023/09/08 13:34:29;;;;;;;8.98;3.20;;;;;;;;;;4987849;28;20332;-65
2023/09/08 13:36:55;;;;;;;5.30;3.40;;;;;;;;;;4990682;28;20038;-64
2023/09/08 13:39:20;;;;;;;7.22;3.60;;;;;;;;;;4975948;28;20023;-65
2023/09/08 13:41:52;;;;;;;7.68;3.60;;;;;;;;;;4975806;28;20027;-64
2023/09/08 13:44:19;;;;;;;5.85;3.50;;;;;;;;;;4988821;28;20130;-66
2023/09/08 13:46:55;;;;;;;6.93;3.95;;;;;;;;;;4994124;28;20567;-65
2023/09/08 13:49:21;;;;;;;10.48;3.65;;;;;;;;;;4975629;28;20117;-66
2023/09/08 13:51:46;;;;;;;8.77;3.90;;;;;;;;;;4975464;28;20058;-67
2023/09/08 13:54:12;;;;;;;8.65;4.00;;;;;;;;;;4975447;28;20058;-68
2023/09/08 13:56:39;;;;;;;6.13;3.88;;;;;;;;;;4975599;28;20026;-65
2023/09/08 13:59:05;;;;;;;6.78;3.83;;;;;;;;;;4975376;28;20018;-65
2023/09/08 14:01:33;;;;;;;4.97;3.58;;;;;;;;;;4975325;28;20034;-65
2023/09/08 14:04:00;;;;;;;6.20;4.10;;;;;;;;;;4975605;28;20029;-65
2023/09/08 14:06:26;;;;;;;5.47;3.97;;;;;;;;;;4975591;28;20421;-67
2023/09/08 14:08:52;;;;;;;5.35;3.67;;;;;;;;;;4975465;28;20061;-68
2023/09/08 14:11:18;;;;;;;6.82;3.92;;;;;;;;;;4975373;28;20050;-66
2023/09/08 14:13:43;;;;;;;9.00;3.80;;;;;;;;;;4975329;28;20346;-67
2023/09/08 14:16:09;;;;;;;7.38;4.00;;;;;;;;;;4974672;28;20042;-66
2023/09/08 14:18:34;;;;;;;7.63;4.07;;;;;;;;;;4975216;28;20018;-67
2023/09/08 14:21:00;;;;;;;9.07;4.00;;;;;;;;;;4987325;28;20039;-67
2023/09/08 14:23:26;;;;;;;8.18;3.95;;;;;;;;;;4994640;28;20387;-67
2023/09/08 14:25:52;;;;;;;7.40;4.30;;;;;;;;;;4994372;28;20026;-67
2023/09/08 14:28:17;;;;;;;9.65;4.75;;;;;;;;;;4994547;28;20034;-67